N626PC RPUB-RPVM
Flight info
| Callsign | N626PC |
|---|---|
| Flight time | 2h 17m |
| Altitude | 9500 |
| Route | VFR |
| Aircraft | AEST/L-SDF/C |
Departure
| Time | 2026-05-06 11:14 |
|---|---|
| Airport | Loakan Airport (RPUB) |
Arrival
| Time | 2026-05-06 13:31 |
|---|---|
| Airport | Mactan Cebu International Airport (RPVM) |
| Time | Latitude | Longitude | Altitude | Speed | Heading |
|---|---|---|---|---|---|
| 2026-05-06 10:42 | 16.37545 | 120.61389 | 4079 ft | 0 kts | 262° |
| 2026-05-06 11:11 | 16.37544 | 120.61383 | 4078 ft | 5 kts | 262° |
| 2026-05-06 11:11 | 16.37538 | 120.61340 | 4077 ft | 4 kts | 255° |
| 2026-05-06 11:11 | 16.37499 | 120.61321 | 4077 ft | 9 kts | 144° |
| 2026-05-06 11:12 | 16.37495 | 120.61339 | 4078 ft | 0 kts | 84° |
| 2026-05-06 11:12 | 16.37502 | 120.61597 | 4090 ft | 70 kts | 88° |
| 2026-05-06 11:12 | 16.37520 | 120.62254 | 4140 ft | 106 kts | 89° |
| 2026-05-06 11:13 | 16.37529 | 120.63052 | 4298 ft | 113 kts | 90° |
| 2026-05-06 11:13 | 16.37543 | 120.63944 | 4456 ft | 135 kts | 87° |
| 2026-05-06 11:13 | 16.37589 | 120.64992 | 4599 ft | 150 kts | 88° |
| 2026-05-06 11:13 | 16.37652 | 120.66109 | 4811 ft | 158 kts | 86° |
| 2026-05-06 11:14 | 16.37728 | 120.67271 | 4980 ft | 165 kts | 87° |
| 2026-05-06 11:14 | 16.37784 | 120.68491 | 5143 ft | 169 kts | 89° |
| 2026-05-06 11:14 | 16.37664 | 120.69719 | 5264 ft | 175 kts | 109° |
| 2026-05-06 11:14 | 16.37032 | 120.70792 | 5391 ft | 176 kts | 138° |
| 2026-05-06 11:15 | 16.36013 | 120.71479 | 5551 ft | 175 kts | 155° |
| 2026-05-06 11:15 | 16.34886 | 120.72016 | 5541 ft | 183 kts | 157° |
| 2026-05-06 11:15 | 16.33694 | 120.72518 | 5555 ft | 187 kts | 160° |
| 2026-05-06 11:15 | 16.32453 | 120.72960 | 5549 ft | 191 kts | 164° |
| 2026-05-06 11:16 | 16.31147 | 120.73252 | 5558 ft | 193 kts | 173° |
| 2026-05-06 11:16 | 16.30457 | 120.73321 | 5535 ft | 196 kts | 177° |
| 2026-05-06 11:16 | 16.29119 | 120.73288 | 5549 ft | 195 kts | 188° |
| 2026-05-06 11:16 | 16.27816 | 120.72937 | 5563 ft | 193 kts | 201° |
| 2026-05-06 11:17 | 16.26566 | 120.72352 | 5601 ft | 194 kts | 205° |
| 2026-05-06 11:17 | 16.25388 | 120.71721 | 5650 ft | 193 kts | 209° |
| 2026-05-06 11:17 | 16.24213 | 120.71022 | 5643 ft | 196 kts | 210° |
| 2026-05-06 11:17 | 16.23000 | 120.70371 | 5594 ft | 197 kts | 201° |
| 2026-05-06 11:18 | 16.21694 | 120.69922 | 5569 ft | 198 kts | 196° |
| 2026-05-06 11:18 | 16.20339 | 120.69582 | 5459 ft | 203 kts | 191° |
| 2026-05-06 11:18 | 16.18933 | 120.69336 | 5341 ft | 206 kts | 189° |
| 2026-05-06 11:18 | 16.17518 | 120.69095 | 5302 ft | 205 kts | 190° |
| 2026-05-06 11:19 | 16.16117 | 120.68819 | 5255 ft | 205 kts | 192° |
| 2026-05-06 11:19 | 16.14719 | 120.68490 | 5177 ft | 207 kts | 195° |
| 2026-05-06 11:19 | 16.13326 | 120.68066 | 5123 ft | 209 kts | 198° |
| 2026-05-06 11:19 | 16.11925 | 120.67598 | 4988 ft | 214 kts | 198° |
| 2026-05-06 11:20 | 16.10499 | 120.67131 | 4857 ft | 216 kts | 198° |
| 2026-05-06 11:20 | 16.09064 | 120.66669 | 4757 ft | 216 kts | 197° |
| 2026-05-06 11:20 | 16.07618 | 120.66235 | 4642 ft | 217 kts | 196° |
| 2026-05-06 11:20 | 16.06153 | 120.65808 | 4498 ft | 219 kts | 194° |
| 2026-05-06 11:21 | 16.04685 | 120.65436 | 4487 ft | 215 kts | 195° |
| 2026-05-06 11:21 | 16.03246 | 120.65060 | 4496 ft | 211 kts | 195° |
| 2026-05-06 11:21 | 16.01854 | 120.64697 | 4506 ft | 208 kts | 195° |
| 2026-05-06 11:21 | 16.00444 | 120.64408 | 4517 ft | 205 kts | 189° |
| 2026-05-06 11:22 | 15.99049 | 120.64203 | 4495 ft | 200 kts | 188° |
| 2026-05-06 11:22 | 15.97670 | 120.64005 | 4492 ft | 200 kts | 188° |
| 2026-05-06 11:22 | 15.96297 | 120.63809 | 4502 ft | 199 kts | 188° |
| 2026-05-06 11:22 | 15.94924 | 120.63611 | 4501 ft | 199 kts | 188° |
| 2026-05-06 11:23 | 15.93553 | 120.63408 | 4500 ft | 200 kts | 188° |
| 2026-05-06 11:23 | 15.92167 | 120.63203 | 4498 ft | 202 kts | 188° |
| 2026-05-06 11:23 | 15.90771 | 120.62998 | 4497 ft | 204 kts | 188° |
| 2026-05-06 11:23 | 15.89365 | 120.62791 | 4502 ft | 204 kts | 188° |
| 2026-05-06 11:24 | 15.87957 | 120.62586 | 4490 ft | 205 kts | 188° |
| 2026-05-06 11:24 | 15.86543 | 120.62379 | 4484 ft | 206 kts | 188° |
| 2026-05-06 11:24 | 15.85127 | 120.62172 | 4477 ft | 205 kts | 188° |
| 2026-05-06 11:24 | 15.83713 | 120.61966 | 4480 ft | 205 kts | 188° |
| 2026-05-06 11:25 | 15.82301 | 120.61767 | 4480 ft | 205 kts | 187° |
| 2026-05-06 11:25 | 15.81366 | 120.61645 | 4482 ft | 205 kts | 187° |
| 2026-05-06 11:25 | 15.80429 | 120.61524 | 4484 ft | 204 kts | 187° |
| 2026-05-06 11:25 | 15.78072 | 120.61216 | 4479 ft | 203 kts | 187° |
| 2026-05-06 11:26 | 15.76674 | 120.61035 | 4480 ft | 202 kts | 187° |
| 2026-05-06 11:26 | 15.75297 | 120.60853 | 4475 ft | 203 kts | 187° |
| 2026-05-06 11:26 | 15.73868 | 120.60717 | 4463 ft | 204 kts | 184° |
| 2026-05-06 11:26 | 15.72466 | 120.60609 | 4448 ft | 204 kts | 184° |
| 2026-05-06 11:27 | 15.71039 | 120.60505 | 4461 ft | 203 kts | 184° |
| 2026-05-06 11:27 | 15.69646 | 120.60497 | 4463 ft | 204 kts | 176° |
| 2026-05-06 11:27 | 15.68285 | 120.60863 | 4481 ft | 203 kts | 150° |
| 2026-05-06 11:27 | 15.67126 | 120.61681 | 4508 ft | 202 kts | 143° |
| 2026-05-06 11:28 | 15.66006 | 120.62555 | 4514 ft | 200 kts | 142° |
| 2026-05-06 11:28 | 15.64893 | 120.63431 | 4502 ft | 201 kts | 142° |
| 2026-05-06 11:28 | 15.63780 | 120.64309 | 4513 ft | 200 kts | 142° |
| 2026-05-06 11:28 | 15.62678 | 120.65171 | 4524 ft | 198 kts | 143° |
| 2026-05-06 11:29 | 15.61546 | 120.66010 | 4528 ft | 201 kts | 144° |
| 2026-05-06 11:29 | 15.60407 | 120.66847 | 4537 ft | 200 kts | 144° |
| 2026-05-06 11:29 | 15.59253 | 120.67664 | 4549 ft | 202 kts | 146° |
| 2026-05-06 11:29 | 15.58079 | 120.68467 | 4543 ft | 202 kts | 146° |
| 2026-05-06 11:30 | 15.56904 | 120.69270 | 4536 ft | 203 kts | 146° |
| 2026-05-06 11:30 | 15.55728 | 120.70070 | 4527 ft | 202 kts | 146° |
| 2026-05-06 11:30 | 15.54548 | 120.70881 | 4492 ft | 203 kts | 146° |
| 2026-05-06 11:30 | 15.53367 | 120.71683 | 4497 ft | 203 kts | 146° |
| 2026-05-06 11:31 | 15.52185 | 120.72480 | 4497 ft | 202 kts | 146° |
| 2026-05-06 11:31 | 15.51009 | 120.73279 | 4496 ft | 202 kts | 146° |
| 2026-05-06 11:31 | 15.49839 | 120.74078 | 4501 ft | 200 kts | 146° |
| 2026-05-06 11:31 | 15.48674 | 120.74876 | 4504 ft | 202 kts | 146° |
| 2026-05-06 11:32 | 15.47494 | 120.75682 | 4503 ft | 204 kts | 146° |
| 2026-05-06 11:32 | 15.46314 | 120.76491 | 4509 ft | 202 kts | 146° |
| 2026-05-06 11:32 | 15.45144 | 120.77289 | 4508 ft | 201 kts | 146° |
| 2026-05-06 11:32 | 15.43967 | 120.78045 | 4519 ft | 202 kts | 153° |
| 2026-05-06 11:33 | 15.42617 | 120.78425 | 4506 ft | 202 kts | 174° |
| 2026-05-06 11:33 | 15.41219 | 120.78469 | 4503 ft | 202 kts | 178° |
| 2026-05-06 11:33 | 15.39810 | 120.78477 | 4499 ft | 203 kts | 178° |
| 2026-05-06 11:33 | 15.38403 | 120.78482 | 4507 ft | 201 kts | 178° |
| 2026-05-06 11:34 | 15.37001 | 120.78482 | 4513 ft | 202 kts | 178° |
| 2026-05-06 11:34 | 15.35584 | 120.78460 | 4502 ft | 203 kts | 178° |
| 2026-05-06 11:34 | 15.34174 | 120.78427 | 4513 ft | 202 kts | 178° |
| 2026-05-06 11:34 | 15.32768 | 120.78414 | 4510 ft | 203 kts | 176° |
| 2026-05-06 11:35 | 15.31348 | 120.78502 | 4513 ft | 204 kts | 174° |
| 2026-05-06 11:35 | 15.29939 | 120.78611 | 4511 ft | 203 kts | 172° |
| 2026-05-06 11:35 | 15.28524 | 120.78746 | 4513 ft | 205 kts | 172° |
| 2026-05-06 11:35 | 15.27116 | 120.78907 | 4512 ft | 207 kts | 172° |
| 2026-05-06 11:36 | 15.25689 | 120.79086 | 4508 ft | 206 kts | 171° |
| 2026-05-06 11:36 | 15.24274 | 120.79258 | 4514 ft | 204 kts | 171° |
| 2026-05-06 11:36 | 15.22867 | 120.79411 | 4515 ft | 203 kts | 171° |
| 2026-05-06 11:36 | 15.21465 | 120.79559 | 4520 ft | 203 kts | 171° |
| 2026-05-06 11:37 | 15.20052 | 120.79733 | 4519 ft | 206 kts | 171° |
| 2026-05-06 11:37 | 15.18631 | 120.79939 | 4514 ft | 206 kts | 170° |
| 2026-05-06 11:37 | 15.17224 | 120.80159 | 4523 ft | 204 kts | 168° |
| 2026-05-06 11:37 | 15.15818 | 120.80406 | 4533 ft | 206 kts | 168° |
| 2026-05-06 11:38 | 15.14398 | 120.80661 | 4528 ft | 207 kts | 168° |
| 2026-05-06 11:38 | 15.12971 | 120.80887 | 4528 ft | 207 kts | 171° |
| 2026-05-06 11:38 | 15.11536 | 120.81064 | 4522 ft | 208 kts | 172° |
| 2026-05-06 11:38 | 15.10106 | 120.81172 | 4514 ft | 205 kts | 180° |
| 2026-05-06 11:39 | 15.08730 | 120.80816 | 4524 ft | 206 kts | 205° |
| 2026-05-06 11:39 | 15.07671 | 120.79829 | 4530 ft | 207 kts | 232° |
| 2026-05-06 11:39 | 15.06882 | 120.78559 | 4526 ft | 211 kts | 238° |
| 2026-05-06 11:39 | 15.06146 | 120.77230 | 4528 ft | 216 kts | 239° |
| 2026-05-06 11:40 | 15.05397 | 120.75876 | 4527 ft | 216 kts | 239° |
| 2026-05-06 11:40 | 15.04644 | 120.74513 | 4527 ft | 220 kts | 239° |
| 2026-05-06 11:40 | 15.03891 | 120.73147 | 4528 ft | 218 kts | 239° |
| 2026-05-06 11:40 | 15.03141 | 120.71783 | 4528 ft | 220 kts | 239° |
| 2026-05-06 11:41 | 15.02390 | 120.70405 | 4526 ft | 220 kts | 239° |
| 2026-05-06 11:41 | 15.01631 | 120.69030 | 4533 ft | 221 kts | 237° |
| 2026-05-06 11:41 | 15.00765 | 120.67743 | 4534 ft | 219 kts | 232° |
| 2026-05-06 11:41 | 14.99829 | 120.66478 | 4533 ft | 217 kts | 231° |
| 2026-05-06 11:42 | 14.98893 | 120.65264 | 4527 ft | 220 kts | 228° |
| 2026-05-06 11:42 | 14.97853 | 120.64104 | 4527 ft | 220 kts | 223° |
| 2026-05-06 11:42 | 14.96647 | 120.63161 | 4523 ft | 216 kts | 208° |
| 2026-05-06 11:42 | 14.95279 | 120.62542 | 4524 ft | 215 kts | 195° |
| 2026-05-06 11:43 | 14.93842 | 120.62159 | 4537 ft | 212 kts | 192° |
| 2026-05-06 11:43 | 14.92406 | 120.61807 | 4528 ft | 212 kts | 192° |
| 2026-05-06 11:43 | 14.90974 | 120.61458 | 4530 ft | 211 kts | 191° |
| 2026-05-06 11:44 | 14.88125 | 120.60751 | 4533 ft | 210 kts | 191° |
| 2026-05-06 11:44 | 14.86697 | 120.60394 | 4528 ft | 212 kts | 191° |
| 2026-05-06 11:44 | 14.85259 | 120.60044 | 4531 ft | 212 kts | 189° |
| 2026-05-06 11:44 | 14.83820 | 120.59721 | 4525 ft | 212 kts | 189° |
| 2026-05-06 11:45 | 14.82374 | 120.59417 | 4527 ft | 212 kts | 189° |
| 2026-05-06 11:45 | 14.80930 | 120.59119 | 4531 ft | 212 kts | 189° |
| 2026-05-06 11:45 | 14.79482 | 120.58802 | 4522 ft | 213 kts | 189° |
| 2026-05-06 11:45 | 14.78032 | 120.58472 | 4533 ft | 212 kts | 189° |
| 2026-05-06 11:46 | 14.76593 | 120.58173 | 4521 ft | 211 kts | 189° |
| 2026-05-06 11:46 | 14.75152 | 120.57879 | 4520 ft | 211 kts | 189° |
| 2026-05-06 11:46 | 14.73708 | 120.57582 | 4519 ft | 211 kts | 190° |
| 2026-05-06 11:46 | 14.72284 | 120.57246 | 4519 ft | 210 kts | 192° |
| 2026-05-06 11:47 | 14.70898 | 120.56863 | 4525 ft | 209 kts | 194° |
| 2026-05-06 11:47 | 14.69476 | 120.56458 | 4500 ft | 210 kts | 191° |
| 2026-05-06 11:47 | 14.68044 | 120.56151 | 4460 ft | 210 kts | 189° |
| 2026-05-06 11:47 | 14.66633 | 120.55868 | 4472 ft | 209 kts | 188° |
| 2026-05-06 11:48 | 14.65194 | 120.55703 | 4470 ft | 208 kts | 182° |
| 2026-05-06 11:48 | 14.63752 | 120.55666 | 4461 ft | 207 kts | 180° |
| 2026-05-06 11:48 | 14.62309 | 120.55614 | 4445 ft | 208 kts | 180° |
| 2026-05-06 11:48 | 14.60855 | 120.55598 | 4411 ft | 208 kts | 178° |
| 2026-05-06 11:49 | 14.59411 | 120.55552 | 4434 ft | 206 kts | 182° |
| 2026-05-06 11:49 | 14.57981 | 120.55430 | 4430 ft | 207 kts | 183° |
| 2026-05-06 11:49 | 14.56540 | 120.55276 | 4390 ft | 208 kts | 185° |
| 2026-05-06 11:49 | 14.55106 | 120.55092 | 4326 ft | 207 kts | 185° |
| 2026-05-06 11:50 | 14.53676 | 120.54952 | 4231 ft | 206 kts | 181° |
| 2026-05-06 11:50 | 14.52237 | 120.54888 | 4075 ft | 208 kts | 181° |
| 2026-05-06 11:50 | 14.50789 | 120.54830 | 3919 ft | 209 kts | 179° |
| 2026-05-06 11:50 | 14.49334 | 120.54842 | 3747 ft | 207 kts | 175° |
| 2026-05-06 11:51 | 14.47935 | 120.55117 | 3610 ft | 202 kts | 160° |
| 2026-05-06 11:51 | 14.46642 | 120.55651 | 3464 ft | 200 kts | 152° |
| 2026-05-06 11:51 | 14.45445 | 120.56341 | 3387 ft | 195 kts | 147° |
| 2026-05-06 11:51 | 14.44266 | 120.57038 | 3207 ft | 196 kts | 149° |
| 2026-05-06 11:52 | 14.43089 | 120.57745 | 3071 ft | 194 kts | 147° |
| 2026-05-06 11:52 | 14.41930 | 120.58448 | 2939 ft | 193 kts | 147° |
| 2026-05-06 11:52 | 14.40827 | 120.59224 | 2814 ft | 191 kts | 139° |
| 2026-05-06 11:52 | 14.39880 | 120.60176 | 2658 ft | 190 kts | 128° |
| 2026-05-06 11:53 | 14.39119 | 120.61280 | 2559 ft | 187 kts | 119° |
| 2026-05-06 11:53 | 14.38524 | 120.62471 | 2546 ft | 188 kts | 114° |
| 2026-05-06 11:53 | 14.37989 | 120.63690 | 2532 ft | 190 kts | 112° |
| 2026-05-06 11:53 | 14.37465 | 120.64957 | 2559 ft | 189 kts | 112° |
| 2026-05-06 11:54 | 14.36949 | 120.66206 | 2558 ft | 190 kts | 112° |
| 2026-05-06 11:54 | 14.36408 | 120.67447 | 2582 ft | 188 kts | 113° |
| 2026-05-06 11:54 | 14.35822 | 120.68658 | 2580 ft | 189 kts | 116° |
| 2026-05-06 11:54 | 14.35226 | 120.69866 | 2589 ft | 190 kts | 116° |
| 2026-05-06 11:55 | 14.34629 | 120.71067 | 2567 ft | 192 kts | 116° |
| 2026-05-06 11:55 | 14.34010 | 120.72289 | 2561 ft | 192 kts | 116° |
| 2026-05-06 11:55 | 14.33367 | 120.73501 | 2562 ft | 193 kts | 121° |
| 2026-05-06 11:55 | 14.32549 | 120.74593 | 2562 ft | 193 kts | 131° |
| 2026-05-06 11:56 | 14.31550 | 120.75509 | 2606 ft | 192 kts | 143° |
| 2026-05-06 11:56 | 14.30359 | 120.76130 | 2609 ft | 194 kts | 157° |
| 2026-05-06 11:56 | 14.29062 | 120.76561 | 2604 ft | 197 kts | 160° |
| 2026-05-06 11:56 | 14.27773 | 120.76959 | 2769 ft | 189 kts | 161° |
| 2026-05-06 11:57 | 14.26516 | 120.77311 | 2967 ft | 187 kts | 162° |
| 2026-05-06 11:57 | 14.25260 | 120.77655 | 3153 ft | 187 kts | 162° |
| 2026-05-06 11:57 | 14.24009 | 120.78035 | 3295 ft | 186 kts | 160° |
| 2026-05-06 11:57 | 14.22778 | 120.78418 | 3472 ft | 183 kts | 161° |
| 2026-05-06 11:58 | 14.21570 | 120.78789 | 3667 ft | 180 kts | 161° |
| 2026-05-06 11:58 | 14.20365 | 120.79146 | 3837 ft | 180 kts | 161° |
| 2026-05-06 11:58 | 14.19159 | 120.79495 | 4023 ft | 179 kts | 161° |
| 2026-05-06 11:58 | 14.17974 | 120.79853 | 4204 ft | 177 kts | 161° |
| 2026-05-06 11:59 | 14.16788 | 120.80206 | 4359 ft | 177 kts | 161° |
| 2026-05-06 11:59 | 14.15609 | 120.80542 | 4531 ft | 174 kts | 162° |
| 2026-05-06 11:59 | 14.14836 | 120.80756 | 4647 ft | 173 kts | 162° |
| 2026-05-06 11:59 | 14.13683 | 120.81064 | 4859 ft | 170 kts | 162° |
| 2026-05-06 12:00 | 14.12170 | 120.81479 | 5104 ft | 168 kts | 161° |
| 2026-05-06 12:00 | 14.11403 | 120.81689 | 5213 ft | 169 kts | 161° |
| 2026-05-06 12:00 | 14.10277 | 120.82004 | 5346 ft | 171 kts | 161° |
| 2026-05-06 12:00 | 14.09121 | 120.82306 | 5510 ft | 170 kts | 162° |
| 2026-05-06 12:01 | 14.07969 | 120.82581 | 5661 ft | 170 kts | 164° |
| 2026-05-06 12:01 | 14.06815 | 120.82853 | 5800 ft | 169 kts | 162° |
| 2026-05-06 12:01 | 14.05681 | 120.83158 | 5978 ft | 169 kts | 161° |
| 2026-05-06 12:01 | 14.04534 | 120.83468 | 6101 ft | 171 kts | 162° |
| 2026-05-06 12:02 | 14.03383 | 120.83756 | 6294 ft | 170 kts | 162° |
| 2026-05-06 12:02 | 14.02233 | 120.84035 | 6463 ft | 170 kts | 161° |
| 2026-05-06 12:02 | 14.01118 | 120.84427 | 6643 ft | 169 kts | 152° |
| 2026-05-06 12:02 | 14.00058 | 120.84938 | 6824 ft | 166 kts | 150° |
| 2026-05-06 12:03 | 13.99022 | 120.85437 | 7023 ft | 163 kts | 152° |
| 2026-05-06 12:03 | 13.97986 | 120.85920 | 7184 ft | 163 kts | 152° |
| 2026-05-06 12:03 | 13.96953 | 120.86402 | 7347 ft | 163 kts | 152° |
| 2026-05-06 12:03 | 13.95924 | 120.86879 | 7505 ft | 162 kts | 152° |
| 2026-05-06 12:04 | 13.94892 | 120.87359 | 7662 ft | 163 kts | 152° |
| 2026-05-06 12:04 | 13.93861 | 120.87839 | 7821 ft | 163 kts | 152° |
| 2026-05-06 12:04 | 13.92861 | 120.88373 | 7980 ft | 161 kts | 146° |
| 2026-05-06 12:04 | 13.91905 | 120.88966 | 8128 ft | 160 kts | 144° |
| 2026-05-06 12:05 | 13.90959 | 120.89567 | 8274 ft | 160 kts | 144° |
| 2026-05-06 12:05 | 13.90015 | 120.90168 | 8418 ft | 159 kts | 144° |
| 2026-05-06 12:05 | 13.89075 | 120.90767 | 8545 ft | 159 kts | 144° |
| 2026-05-06 12:05 | 13.88133 | 120.91367 | 8663 ft | 159 kts | 144° |
| 2026-05-06 12:06 | 13.87208 | 120.91979 | 8807 ft | 157 kts | 140° |
| 2026-05-06 12:06 | 13.86364 | 120.92661 | 8934 ft | 155 kts | 137° |
| 2026-05-06 12:06 | 13.85535 | 120.93370 | 9049 ft | 155 kts | 136° |
| 2026-05-06 12:06 | 13.84710 | 120.94080 | 9161 ft | 154 kts | 136° |
| 2026-05-06 12:07 | 13.83880 | 120.94795 | 9280 ft | 157 kts | 136° |
| 2026-05-06 12:07 | 13.83041 | 120.95521 | 9414 ft | 158 kts | 136° |
| 2026-05-06 12:07 | 13.82197 | 120.96270 | 9512 ft | 164 kts | 136° |
| 2026-05-06 12:07 | 13.81356 | 120.97094 | 9514 ft | 171 kts | 133° |
| 2026-05-06 12:08 | 13.80507 | 120.97986 | 9493 ft | 177 kts | 133° |
| 2026-05-06 12:08 | 13.79641 | 120.98896 | 9484 ft | 179 kts | 133° |
| 2026-05-06 12:08 | 13.78757 | 120.99821 | 9489 ft | 184 kts | 133° |
| 2026-05-06 12:08 | 13.77847 | 121.00775 | 9488 ft | 190 kts | 133° |
| 2026-05-06 12:09 | 13.76921 | 121.01750 | 9489 ft | 192 kts | 133° |
| 2026-05-06 12:09 | 13.75977 | 121.02747 | 9475 ft | 196 kts | 133° |
| 2026-05-06 12:09 | 13.75025 | 121.03757 | 9490 ft | 197 kts | 133° |
| 2026-05-06 12:09 | 13.74071 | 121.04766 | 9494 ft | 198 kts | 133° |
| 2026-05-06 12:10 | 13.73108 | 121.05783 | 9492 ft | 200 kts | 133° |
| 2026-05-06 12:10 | 13.72149 | 121.06791 | 9485 ft | 199 kts | 133° |
| 2026-05-06 12:10 | 13.71163 | 121.07823 | 9495 ft | 201 kts | 133° |
| 2026-05-06 12:10 | 13.70194 | 121.08847 | 9493 ft | 202 kts | 133° |
| 2026-05-06 12:11 | 13.69213 | 121.09884 | 9493 ft | 203 kts | 133° |
| 2026-05-06 12:11 | 13.68229 | 121.10929 | 9499 ft | 203 kts | 133° |
| 2026-05-06 12:11 | 13.67244 | 121.11971 | 9496 ft | 203 kts | 133° |
| 2026-05-06 12:11 | 13.66255 | 121.13015 | 9494 ft | 204 kts | 133° |
| 2026-05-06 12:12 | 13.65272 | 121.14052 | 9495 ft | 202 kts | 133° |
| 2026-05-06 12:12 | 13.64290 | 121.15076 | 9495 ft | 200 kts | 133° |
| 2026-05-06 12:12 | 13.63313 | 121.16102 | 9485 ft | 202 kts | 133° |
| 2026-05-06 12:12 | 13.62330 | 121.17132 | 9496 ft | 202 kts | 133° |
| 2026-05-06 12:13 | 13.61343 | 121.18173 | 9495 ft | 205 kts | 133° |
| 2026-05-06 12:13 | 13.60352 | 121.19223 | 9490 ft | 204 kts | 133° |
| 2026-05-06 12:13 | 13.59366 | 121.20266 | 9502 ft | 204 kts | 132° |
| 2026-05-06 12:13 | 13.58410 | 121.21335 | 9508 ft | 202 kts | 131° |
| 2026-05-06 12:14 | 13.57463 | 121.22406 | 9504 ft | 203 kts | 130° |
| 2026-05-06 12:14 | 13.56516 | 121.23482 | 9504 ft | 204 kts | 131° |
| 2026-05-06 12:14 | 13.55568 | 121.24564 | 9502 ft | 204 kts | 131° |
| 2026-05-06 12:14 | 13.54617 | 121.25662 | 9504 ft | 206 kts | 130° |
| 2026-05-06 12:15 | 13.53667 | 121.26768 | 9506 ft | 206 kts | 130° |
| 2026-05-06 12:15 | 13.52718 | 121.27872 | 9506 ft | 206 kts | 130° |
| 2026-05-06 12:15 | 13.51768 | 121.28976 | 9508 ft | 206 kts | 130° |
| 2026-05-06 12:15 | 13.50818 | 121.30077 | 9506 ft | 206 kts | 130° |
| 2026-05-06 12:16 | 13.49866 | 121.31181 | 9505 ft | 207 kts | 130° |
| 2026-05-06 12:16 | 13.48912 | 121.32285 | 9504 ft | 206 kts | 131° |
| 2026-05-06 12:16 | 13.47972 | 121.33378 | 9494 ft | 207 kts | 130° |
| 2026-05-06 12:16 | 13.47018 | 121.34485 | 9503 ft | 207 kts | 131° |
| 2026-05-06 12:17 | 13.46066 | 121.35590 | 9502 ft | 207 kts | 130° |
| 2026-05-06 12:17 | 13.45113 | 121.36694 | 9503 ft | 206 kts | 130° |
| 2026-05-06 12:17 | 13.44159 | 121.37796 | 9517 ft | 206 kts | 131° |
| 2026-05-06 12:17 | 13.43212 | 121.38897 | 9511 ft | 206 kts | 131° |
| 2026-05-06 12:18 | 13.42264 | 121.39994 | 9505 ft | 205 kts | 130° |
| 2026-05-06 12:18 | 13.41316 | 121.41093 | 9512 ft | 206 kts | 130° |
| 2026-05-06 12:18 | 13.40368 | 121.42193 | 9503 ft | 205 kts | 130° |
| 2026-05-06 12:18 | 13.39422 | 121.43286 | 9504 ft | 205 kts | 130° |
| 2026-05-06 12:19 | 13.38474 | 121.44383 | 9503 ft | 204 kts | 131° |
| 2026-05-06 12:19 | 13.37528 | 121.45476 | 9504 ft | 205 kts | 130° |
| 2026-05-06 12:19 | 13.36582 | 121.46567 | 9502 ft | 205 kts | 131° |
| 2026-05-06 12:19 | 13.35632 | 121.47663 | 9504 ft | 205 kts | 131° |
| 2026-05-06 12:20 | 13.34683 | 121.48763 | 9504 ft | 206 kts | 130° |
| 2026-05-06 12:20 | 13.34055 | 121.49490 | 9498 ft | 206 kts | 130° |
| 2026-05-06 12:20 | 13.32788 | 121.50954 | 9507 ft | 205 kts | 130° |
| 2026-05-06 12:20 | 13.32162 | 121.51676 | 9506 ft | 204 kts | 131° |
| 2026-05-06 12:21 | 13.30907 | 121.53128 | 9501 ft | 207 kts | 131° |
| 2026-05-06 12:21 | 13.29958 | 121.54240 | 9503 ft | 207 kts | 131° |
| 2026-05-06 12:21 | 13.28998 | 121.55367 | 9504 ft | 207 kts | 130° |
| 2026-05-06 12:21 | 13.28046 | 121.56480 | 9495 ft | 208 kts | 131° |
| 2026-05-06 12:22 | 13.27079 | 121.57582 | 9507 ft | 207 kts | 131° |
| 2026-05-06 12:22 | 13.26108 | 121.58680 | 9506 ft | 208 kts | 131° |
| 2026-05-06 12:22 | 13.25149 | 121.59762 | 9509 ft | 208 kts | 131° |
| 2026-05-06 12:22 | 13.24178 | 121.60859 | 9501 ft | 208 kts | 131° |
| 2026-05-06 12:23 | 13.23207 | 121.61955 | 9506 ft | 208 kts | 131° |
| 2026-05-06 12:23 | 13.22234 | 121.63054 | 9506 ft | 208 kts | 131° |
| 2026-05-06 12:23 | 13.21245 | 121.64130 | 9501 ft | 208 kts | 133° |
| 2026-05-06 12:23 | 13.20236 | 121.65192 | 9502 ft | 208 kts | 134° |
| 2026-05-06 12:24 | 13.19224 | 121.66257 | 9491 ft | 208 kts | 134° |
| 2026-05-06 12:24 | 13.18213 | 121.67321 | 9491 ft | 208 kts | 134° |
| 2026-05-06 12:24 | 13.17201 | 121.68385 | 9509 ft | 208 kts | 134° |
| 2026-05-06 12:24 | 13.16190 | 121.69446 | 9501 ft | 208 kts | 134° |
| 2026-05-06 12:25 | 13.15177 | 121.70508 | 9503 ft | 208 kts | 134° |
| 2026-05-06 12:25 | 13.14167 | 121.71567 | 9507 ft | 208 kts | 134° |
| 2026-05-06 12:25 | 13.13158 | 121.72627 | 9499 ft | 208 kts | 134° |
| 2026-05-06 12:25 | 13.12148 | 121.73685 | 9503 ft | 208 kts | 134° |
| 2026-05-06 12:26 | 13.11137 | 121.74746 | 9503 ft | 208 kts | 134° |
| 2026-05-06 12:26 | 13.10126 | 121.75805 | 9503 ft | 208 kts | 134° |
| 2026-05-06 12:26 | 13.09113 | 121.76866 | 9506 ft | 208 kts | 134° |
| 2026-05-06 12:26 | 13.08101 | 121.77929 | 9502 ft | 208 kts | 134° |
| 2026-05-06 12:27 | 13.07094 | 121.78974 | 9504 ft | 208 kts | 135° |
| 2026-05-06 12:27 | 13.06054 | 121.80031 | 9500 ft | 208 kts | 135° |
| 2026-05-06 12:27 | 13.05018 | 121.81081 | 9503 ft | 210 kts | 135° |
| 2026-05-06 12:27 | 13.03980 | 121.82135 | 9503 ft | 210 kts | 135° |
| 2026-05-06 12:28 | 13.02955 | 121.83176 | 9502 ft | 210 kts | 135° |
| 2026-05-06 12:28 | 13.01916 | 121.84231 | 9502 ft | 210 kts | 135° |
| 2026-05-06 12:28 | 13.00875 | 121.85287 | 9503 ft | 210 kts | 135° |
| 2026-05-06 12:28 | 12.99836 | 121.86341 | 9497 ft | 210 kts | 135° |
| 2026-05-06 12:29 | 12.98797 | 121.87396 | 9497 ft | 210 kts | 135° |
| 2026-05-06 12:29 | 12.97755 | 121.88454 | 9490 ft | 210 kts | 135° |
| 2026-05-06 12:29 | 12.96714 | 121.89511 | 9498 ft | 210 kts | 135° |
| 2026-05-06 12:29 | 12.95676 | 121.90565 | 9501 ft | 210 kts | 135° |
| 2026-05-06 12:30 | 12.94639 | 121.91618 | 9500 ft | 210 kts | 135° |
| 2026-05-06 12:30 | 12.93601 | 121.92672 | 9500 ft | 210 kts | 135° |
| 2026-05-06 12:30 | 12.92563 | 121.93726 | 9500 ft | 210 kts | 135° |
| 2026-05-06 12:30 | 12.91522 | 121.94783 | 9500 ft | 210 kts | 135° |
| 2026-05-06 12:31 | 12.90484 | 121.95836 | 9497 ft | 210 kts | 135° |
| 2026-05-06 12:31 | 12.89444 | 121.96890 | 9500 ft | 210 kts | 135° |
| 2026-05-06 12:31 | 12.88405 | 121.97944 | 9500 ft | 210 kts | 135° |
| 2026-05-06 12:31 | 12.87362 | 121.99001 | 9493 ft | 211 kts | 135° |
| 2026-05-06 12:32 | 12.86321 | 122.00055 | 9499 ft | 210 kts | 135° |
| 2026-05-06 12:32 | 12.85280 | 122.01110 | 9500 ft | 210 kts | 135° |
| 2026-05-06 12:32 | 12.84242 | 122.02162 | 9498 ft | 210 kts | 135° |
| 2026-05-06 12:32 | 12.83202 | 122.03217 | 9498 ft | 210 kts | 135° |
| 2026-05-06 12:33 | 12.82160 | 122.04273 | 9501 ft | 210 kts | 135° |
| 2026-05-06 12:33 | 12.81120 | 122.05327 | 9502 ft | 210 kts | 135° |
| 2026-05-06 12:33 | 12.80079 | 122.06381 | 9499 ft | 211 kts | 135° |
| 2026-05-06 12:33 | 12.79037 | 122.07436 | 9500 ft | 211 kts | 135° |
| 2026-05-06 12:34 | 12.77988 | 122.08490 | 9499 ft | 211 kts | 135° |
| 2026-05-06 12:34 | 12.76934 | 122.09543 | 9500 ft | 212 kts | 135° |
| 2026-05-06 12:34 | 12.75892 | 122.10581 | 9503 ft | 212 kts | 135° |
| 2026-05-06 12:34 | 12.74837 | 122.11635 | 9496 ft | 212 kts | 135° |
| 2026-05-06 12:35 | 12.73781 | 122.12688 | 9502 ft | 212 kts | 135° |
| 2026-05-06 12:35 | 12.72723 | 122.13744 | 9503 ft | 212 kts | 135° |
| 2026-05-06 12:35 | 12.71665 | 122.14803 | 9500 ft | 212 kts | 135° |
| 2026-05-06 12:35 | 12.70607 | 122.15861 | 9502 ft | 212 kts | 135° |
| 2026-05-06 12:36 | 12.69552 | 122.16915 | 9497 ft | 212 kts | 135° |
| 2026-05-06 12:36 | 12.68495 | 122.17973 | 9495 ft | 212 kts | 135° |
| 2026-05-06 12:36 | 12.67439 | 122.19029 | 9501 ft | 212 kts | 135° |
| 2026-05-06 12:36 | 12.66383 | 122.20085 | 9495 ft | 212 kts | 135° |
| 2026-05-06 12:37 | 12.65327 | 122.21141 | 9501 ft | 212 kts | 135° |
| 2026-05-06 12:37 | 12.64271 | 122.22197 | 9501 ft | 212 kts | 135° |
| 2026-05-06 12:37 | 12.63213 | 122.23255 | 9501 ft | 212 kts | 135° |
| 2026-05-06 12:37 | 12.62157 | 122.24311 | 9501 ft | 212 kts | 135° |
| 2026-05-06 12:38 | 12.61099 | 122.25368 | 9502 ft | 212 kts | 135° |
| 2026-05-06 12:38 | 12.60042 | 122.26426 | 9500 ft | 212 kts | 135° |
| 2026-05-06 12:38 | 12.58988 | 122.27480 | 9496 ft | 212 kts | 135° |
| 2026-05-06 12:38 | 12.57946 | 122.28524 | 9500 ft | 212 kts | 135° |
| 2026-05-06 12:39 | 12.56889 | 122.29582 | 9501 ft | 212 kts | 135° |
| 2026-05-06 12:39 | 12.55832 | 122.30638 | 9500 ft | 212 kts | 135° |
| 2026-05-06 12:39 | 12.54775 | 122.31695 | 9502 ft | 213 kts | 135° |
| 2026-05-06 12:39 | 12.53718 | 122.32752 | 9500 ft | 213 kts | 135° |
| 2026-05-06 12:40 | 12.52661 | 122.33809 | 9501 ft | 212 kts | 135° |
| 2026-05-06 12:40 | 12.51603 | 122.34867 | 9500 ft | 212 kts | 135° |
| 2026-05-06 12:40 | 12.50543 | 122.35924 | 9501 ft | 213 kts | 135° |
| 2026-05-06 12:40 | 12.49479 | 122.36982 | 9500 ft | 213 kts | 135° |
| 2026-05-06 12:41 | 12.48413 | 122.38041 | 9498 ft | 213 kts | 135° |
| 2026-05-06 12:41 | 12.47349 | 122.39098 | 9501 ft | 213 kts | 135° |
| 2026-05-06 12:41 | 12.46283 | 122.40156 | 9492 ft | 214 kts | 135° |
| 2026-05-06 12:41 | 12.45222 | 122.41223 | 9495 ft | 213 kts | 134° |
| 2026-05-06 12:42 | 12.44528 | 122.41933 | 9499 ft | 213 kts | 134° |
| 2026-05-06 12:42 | 12.43127 | 122.43368 | 9502 ft | 213 kts | 134° |
| 2026-05-06 12:42 | 12.42079 | 122.44442 | 9505 ft | 213 kts | 134° |
| 2026-05-06 12:42 | 12.41031 | 122.45517 | 9495 ft | 213 kts | 134° |
| 2026-05-06 12:43 | 12.39984 | 122.46590 | 9496 ft | 213 kts | 134° |
| 2026-05-06 12:43 | 12.38936 | 122.47664 | 9506 ft | 213 kts | 134° |
| 2026-05-06 12:43 | 12.37890 | 122.48739 | 9501 ft | 213 kts | 134° |
| 2026-05-06 12:43 | 12.36843 | 122.49814 | 9507 ft | 213 kts | 134° |
| 2026-05-06 12:44 | 12.35798 | 122.50878 | 9497 ft | 211 kts | 134° |
| 2026-05-06 12:44 | 12.34754 | 122.51940 | 9498 ft | 211 kts | 134° |
| 2026-05-06 12:44 | 12.33712 | 122.53002 | 9505 ft | 212 kts | 134° |
| 2026-05-06 12:44 | 12.32670 | 122.54059 | 9506 ft | 211 kts | 134° |
| 2026-05-06 12:45 | 12.31626 | 122.55119 | 9498 ft | 211 kts | 134° |
| 2026-05-06 12:45 | 12.30580 | 122.56172 | 9498 ft | 211 kts | 134° |
| 2026-05-06 12:45 | 12.28842 | 122.57921 | 9505 ft | 211 kts | 134° |
| 2026-05-06 12:46 | 12.27445 | 122.59336 | 9500 ft | 212 kts | 133° |
| 2026-05-06 12:46 | 12.26430 | 122.60401 | 9496 ft | 212 kts | 133° |
| 2026-05-06 12:46 | 12.25734 | 122.61133 | 9505 ft | 212 kts | 133° |
| 2026-05-06 12:46 | 12.24727 | 122.62227 | 9500 ft | 211 kts | 131° |
| 2026-05-06 12:47 | 12.23404 | 122.63695 | 9502 ft | 212 kts | 131° |
| 2026-05-06 12:47 | 12.22404 | 122.64805 | 9501 ft | 212 kts | 131° |
| 2026-05-06 12:47 | 12.21729 | 122.65553 | 9507 ft | 212 kts | 131° |
| 2026-05-06 12:47 | 12.20728 | 122.66664 | 9504 ft | 212 kts | 131° |
| 2026-05-06 12:48 | 12.19727 | 122.67774 | 9495 ft | 212 kts | 131° |
| 2026-05-06 12:48 | 12.18739 | 122.68870 | 9504 ft | 212 kts | 131° |
| 2026-05-06 12:48 | 12.17736 | 122.69981 | 9506 ft | 212 kts | 131° |
| 2026-05-06 12:48 | 12.16737 | 122.71087 | 9498 ft | 213 kts | 131° |
| 2026-05-06 12:49 | 12.15733 | 122.72200 | 9505 ft | 212 kts | 131° |
| 2026-05-06 12:49 | 12.14732 | 122.73306 | 9496 ft | 213 kts | 131° |
| 2026-05-06 12:49 | 12.13729 | 122.74417 | 9509 ft | 212 kts | 131° |
| 2026-05-06 12:49 | 12.12727 | 122.75528 | 9499 ft | 213 kts | 131° |
| 2026-05-06 12:50 | 12.11725 | 122.76640 | 9504 ft | 213 kts | 131° |
| 2026-05-06 12:50 | 12.10723 | 122.77752 | 9500 ft | 213 kts | 131° |
| 2026-05-06 12:50 | 12.09719 | 122.78865 | 9499 ft | 213 kts | 131° |
| 2026-05-06 12:50 | 12.08716 | 122.79973 | 9506 ft | 212 kts | 131° |
| 2026-05-06 12:51 | 12.07712 | 122.81083 | 9501 ft | 212 kts | 131° |
| 2026-05-06 12:51 | 12.06712 | 122.82190 | 9505 ft | 213 kts | 131° |
| 2026-05-06 12:51 | 12.05708 | 122.83300 | 9502 ft | 213 kts | 131° |
| 2026-05-06 12:51 | 12.04703 | 122.84412 | 9494 ft | 213 kts | 131° |
| 2026-05-06 12:52 | 12.03701 | 122.85522 | 9499 ft | 212 kts | 131° |
| 2026-05-06 12:52 | 12.02700 | 122.86630 | 9504 ft | 212 kts | 131° |
| 2026-05-06 12:52 | 12.01697 | 122.87741 | 9489 ft | 213 kts | 131° |
| 2026-05-06 12:52 | 12.00693 | 122.88854 | 9500 ft | 212 kts | 131° |
| 2026-05-06 12:53 | 11.99698 | 122.89951 | 9501 ft | 210 kts | 131° |
| 2026-05-06 12:53 | 11.98706 | 122.91040 | 9499 ft | 209 kts | 131° |
| 2026-05-06 12:53 | 11.97713 | 122.92128 | 9502 ft | 209 kts | 131° |
| 2026-05-06 12:53 | 11.96719 | 122.93217 | 9497 ft | 210 kts | 131° |
| 2026-05-06 12:54 | 11.95725 | 122.94308 | 9497 ft | 210 kts | 131° |
| 2026-05-06 12:54 | 11.94731 | 122.95398 | 9488 ft | 210 kts | 131° |
| 2026-05-06 12:54 | 11.93739 | 122.96487 | 9499 ft | 209 kts | 131° |
| 2026-05-06 12:54 | 11.92744 | 122.97578 | 9498 ft | 209 kts | 131° |
| 2026-05-06 12:55 | 11.91752 | 122.98665 | 9491 ft | 210 kts | 131° |
| 2026-05-06 12:55 | 11.90771 | 122.99740 | 9499 ft | 209 kts | 131° |
| 2026-05-06 12:55 | 11.89779 | 123.00826 | 9495 ft | 209 kts | 131° |
| 2026-05-06 12:55 | 11.88789 | 123.01911 | 9498 ft | 209 kts | 131° |
| 2026-05-06 12:56 | 11.87795 | 123.02999 | 9500 ft | 209 kts | 131° |
| 2026-05-06 12:56 | 11.86804 | 123.04087 | 9492 ft | 209 kts | 131° |
| 2026-05-06 12:56 | 11.85812 | 123.05175 | 9500 ft | 210 kts | 131° |
| 2026-05-06 12:56 | 11.84820 | 123.06265 | 9506 ft | 210 kts | 131° |
| 2026-05-06 12:57 | 11.83825 | 123.07354 | 9502 ft | 210 kts | 131° |
| 2026-05-06 12:57 | 11.82828 | 123.08446 | 9502 ft | 210 kts | 131° |
| 2026-05-06 12:57 | 11.81833 | 123.09538 | 9501 ft | 210 kts | 131° |
| 2026-05-06 12:57 | 11.80840 | 123.10628 | 9498 ft | 210 kts | 131° |
| 2026-05-06 12:58 | 11.79847 | 123.11716 | 9502 ft | 210 kts | 131° |
| 2026-05-06 12:58 | 11.78852 | 123.12807 | 9498 ft | 210 kts | 131° |
| 2026-05-06 12:58 | 11.77859 | 123.13895 | 9501 ft | 210 kts | 131° |
| 2026-05-06 12:58 | 11.76866 | 123.14984 | 9502 ft | 209 kts | 131° |
| 2026-05-06 12:59 | 11.75871 | 123.16074 | 9503 ft | 209 kts | 131° |
| 2026-05-06 12:59 | 11.74866 | 123.17148 | 9505 ft | 209 kts | 131° |
| 2026-05-06 12:59 | 11.73854 | 123.18218 | 9491 ft | 209 kts | 131° |
| 2026-05-06 12:59 | 11.72840 | 123.19288 | 9504 ft | 209 kts | 131° |
| 2026-05-06 13:00 | 11.71841 | 123.20341 | 9496 ft | 209 kts | 131° |
| 2026-05-06 13:00 | 11.70828 | 123.21408 | 9502 ft | 209 kts | 131° |
| 2026-05-06 13:00 | 11.69816 | 123.22476 | 9504 ft | 210 kts | 131° |
| 2026-05-06 13:00 | 11.68801 | 123.23548 | 9488 ft | 210 kts | 131° |
| 2026-05-06 13:01 | 11.67784 | 123.24622 | 9487 ft | 210 kts | 131° |
| 2026-05-06 13:01 | 11.66767 | 123.25697 | 9490 ft | 210 kts | 131° |
| 2026-05-06 13:01 | 11.65752 | 123.26768 | 9487 ft | 210 kts | 131° |
| 2026-05-06 13:01 | 11.64737 | 123.27838 | 9478 ft | 210 kts | 131° |
| 2026-05-06 13:02 | 11.63722 | 123.28905 | 9491 ft | 209 kts | 131° |
| 2026-05-06 13:02 | 11.62706 | 123.29972 | 9491 ft | 209 kts | 131° |
| 2026-05-06 13:02 | 11.61690 | 123.31039 | 9492 ft | 210 kts | 131° |
| 2026-05-06 13:02 | 11.60673 | 123.32105 | 9486 ft | 210 kts | 131° |
| 2026-05-06 13:03 | 11.59652 | 123.33174 | 9488 ft | 210 kts | 131° |
| 2026-05-06 13:03 | 11.58631 | 123.34243 | 9492 ft | 210 kts | 131° |
| 2026-05-06 13:03 | 11.57612 | 123.35311 | 9476 ft | 210 kts | 131° |
| 2026-05-06 13:03 | 11.56595 | 123.36378 | 9481 ft | 210 kts | 131° |
| 2026-05-06 13:04 | 11.55581 | 123.37442 | 9481 ft | 209 kts | 131° |
| 2026-05-06 13:04 | 11.54577 | 123.38496 | 9490 ft | 209 kts | 131° |
| 2026-05-06 13:04 | 11.53566 | 123.39556 | 9479 ft | 210 kts | 131° |
| 2026-05-06 13:04 | 11.52549 | 123.40624 | 9488 ft | 209 kts | 131° |
| 2026-05-06 13:05 | 11.51533 | 123.41690 | 9478 ft | 210 kts | 131° |
| 2026-05-06 13:05 | 11.50517 | 123.42754 | 9486 ft | 209 kts | 131° |
| 2026-05-06 13:05 | 11.49501 | 123.43818 | 9485 ft | 209 kts | 131° |
| 2026-05-06 13:05 | 11.48486 | 123.44882 | 9480 ft | 209 kts | 131° |
| 2026-05-06 13:06 | 11.47471 | 123.45947 | 9487 ft | 210 kts | 131° |
| 2026-05-06 13:06 | 11.46456 | 123.47013 | 9488 ft | 210 kts | 131° |
| 2026-05-06 13:06 | 11.45438 | 123.48082 | 9488 ft | 210 kts | 131° |
| 2026-05-06 13:06 | 11.44422 | 123.49149 | 9478 ft | 210 kts | 131° |
| 2026-05-06 13:07 | 11.43405 | 123.50215 | 9479 ft | 210 kts | 131° |
| 2026-05-06 13:07 | 11.42388 | 123.51282 | 9485 ft | 210 kts | 131° |
| 2026-05-06 13:07 | 11.41372 | 123.52348 | 9482 ft | 210 kts | 131° |
| 2026-05-06 13:07 | 11.40326 | 123.53385 | 9477 ft | 210 kts | 135° |
| 2026-05-06 13:08 | 11.39225 | 123.54362 | 9490 ft | 210 kts | 136° |
| 2026-05-06 13:08 | 11.38116 | 123.55333 | 9482 ft | 210 kts | 136° |
| 2026-05-06 13:08 | 11.37018 | 123.56292 | 9485 ft | 210 kts | 136° |
| 2026-05-06 13:08 | 11.35890 | 123.57279 | 9485 ft | 210 kts | 136° |
| 2026-05-06 13:09 | 11.34795 | 123.58236 | 9474 ft | 211 kts | 136° |
| 2026-05-06 13:09 | 11.33684 | 123.59208 | 9485 ft | 210 kts | 136° |
| 2026-05-06 13:09 | 11.32574 | 123.60179 | 9486 ft | 210 kts | 136° |
| 2026-05-06 13:09 | 11.31464 | 123.61151 | 9481 ft | 210 kts | 136° |
| 2026-05-06 13:10 | 11.30355 | 123.62122 | 9482 ft | 210 kts | 136° |
| 2026-05-06 13:10 | 11.29241 | 123.63093 | 9488 ft | 211 kts | 136° |
| 2026-05-06 13:10 | 11.28097 | 123.64036 | 9473 ft | 212 kts | 138° |
| 2026-05-06 13:10 | 11.26937 | 123.64968 | 9476 ft | 212 kts | 138° |
| 2026-05-06 13:11 | 11.25745 | 123.65873 | 9429 ft | 214 kts | 141° |
| 2026-05-06 13:11 | 11.24501 | 123.66723 | 9382 ft | 216 kts | 143° |
| 2026-05-06 13:11 | 11.23240 | 123.67568 | 9295 ft | 218 kts | 143° |
| 2026-05-06 13:11 | 11.21967 | 123.68420 | 9216 ft | 219 kts | 143° |
| 2026-05-06 13:12 | 11.20686 | 123.69276 | 9139 ft | 220 kts | 143° |
| 2026-05-06 13:12 | 11.19400 | 123.70129 | 9066 ft | 221 kts | 143° |
| 2026-05-06 13:12 | 11.18114 | 123.70981 | 8989 ft | 221 kts | 143° |
| 2026-05-06 13:12 | 11.16816 | 123.71842 | 8855 ft | 223 kts | 143° |
| 2026-05-06 13:13 | 11.15518 | 123.72704 | 8745 ft | 223 kts | 143° |
| 2026-05-06 13:13 | 11.14224 | 123.73562 | 8633 ft | 221 kts | 143° |
| 2026-05-06 13:13 | 11.12936 | 123.74418 | 8519 ft | 221 kts | 143° |
| 2026-05-06 13:13 | 11.11649 | 123.75274 | 8405 ft | 220 kts | 143° |
| 2026-05-06 13:14 | 11.10366 | 123.76128 | 8292 ft | 220 kts | 143° |
| 2026-05-06 13:14 | 11.09084 | 123.76982 | 8177 ft | 220 kts | 143° |
| 2026-05-06 13:14 | 11.07805 | 123.77836 | 8076 ft | 220 kts | 143° |
| 2026-05-06 13:14 | 11.06525 | 123.78688 | 7971 ft | 219 kts | 143° |
| 2026-05-06 13:15 | 11.05249 | 123.79538 | 7869 ft | 219 kts | 143° |
| 2026-05-06 13:15 | 11.03975 | 123.80388 | 7765 ft | 219 kts | 143° |
| 2026-05-06 13:15 | 11.02718 | 123.81226 | 7673 ft | 219 kts | 143° |
| 2026-05-06 13:15 | 11.01446 | 123.82075 | 7575 ft | 219 kts | 143° |
| 2026-05-06 13:16 | 11.00175 | 123.82924 | 7481 ft | 218 kts | 143° |
| 2026-05-06 13:16 | 10.98905 | 123.83773 | 7388 ft | 217 kts | 143° |
| 2026-05-06 13:16 | 10.97645 | 123.84614 | 7287 ft | 216 kts | 143° |
| 2026-05-06 13:16 | 10.96392 | 123.85453 | 7178 ft | 216 kts | 143° |
| 2026-05-06 13:17 | 10.95143 | 123.86303 | 7081 ft | 216 kts | 143° |
| 2026-05-06 13:17 | 10.93894 | 123.87161 | 6977 ft | 216 kts | 143° |
| 2026-05-06 13:17 | 10.92661 | 123.88035 | 6880 ft | 216 kts | 140° |
| 2026-05-06 13:17 | 10.91476 | 123.88970 | 6773 ft | 215 kts | 139° |
| 2026-05-06 13:18 | 10.90303 | 123.89913 | 6669 ft | 215 kts | 139° |
| 2026-05-06 13:18 | 10.89128 | 123.90858 | 6571 ft | 215 kts | 139° |
| 2026-05-06 13:18 | 10.87957 | 123.91800 | 6474 ft | 215 kts | 139° |
| 2026-05-06 13:18 | 10.86786 | 123.92741 | 6387 ft | 215 kts | 139° |
| 2026-05-06 13:19 | 10.85614 | 123.93683 | 6284 ft | 215 kts | 139° |
| 2026-05-06 13:19 | 10.84443 | 123.94627 | 6191 ft | 215 kts | 139° |
| 2026-05-06 13:19 | 10.83273 | 123.95571 | 6099 ft | 214 kts | 139° |
| 2026-05-06 13:19 | 10.82107 | 123.96513 | 5998 ft | 213 kts | 139° |
| 2026-05-06 13:20 | 10.80962 | 123.97438 | 5894 ft | 213 kts | 139° |
| 2026-05-06 13:20 | 10.79754 | 123.98305 | 5747 ft | 214 kts | 148° |
| 2026-05-06 13:20 | 10.78387 | 123.98916 | 5582 ft | 216 kts | 160° |
| 2026-05-06 13:20 | 10.76935 | 123.99329 | 5446 ft | 217 kts | 164° |
| 2026-05-06 13:21 | 10.75462 | 123.99661 | 5323 ft | 216 kts | 167° |
| 2026-05-06 13:21 | 10.73984 | 123.99916 | 5158 ft | 216 kts | 169° |
| 2026-05-06 13:21 | 10.72485 | 124.00110 | 4982 ft | 217 kts | 171° |
| 2026-05-06 13:21 | 10.70992 | 124.00248 | 4897 ft | 213 kts | 174° |
| 2026-05-06 13:22 | 10.69518 | 124.00265 | 4746 ft | 211 kts | 179° |
| 2026-05-06 13:22 | 10.68053 | 124.00149 | 4581 ft | 212 kts | 185° |
| 2026-05-06 13:22 | 10.66585 | 123.99961 | 4401 ft | 213 kts | 185° |
| 2026-05-06 13:22 | 10.65115 | 123.99787 | 4260 ft | 211 kts | 182° |
| 2026-05-06 13:23 | 10.63646 | 123.99843 | 4080 ft | 212 kts | 172° |
| 2026-05-06 13:23 | 10.62178 | 123.99967 | 3959 ft | 212 kts | 175° |
| 2026-05-06 13:23 | 10.60714 | 124.00037 | 3831 ft | 210 kts | 175° |
| 2026-05-06 13:23 | 10.59257 | 124.00129 | 3671 ft | 209 kts | 175° |
| 2026-05-06 13:24 | 10.57800 | 124.00203 | 3489 ft | 210 kts | 176° |
| 2026-05-06 13:24 | 10.56354 | 124.00238 | 3400 ft | 206 kts | 177° |
| 2026-05-06 13:24 | 10.54948 | 124.00295 | 3300 ft | 205 kts | 175° |
| 2026-05-06 13:24 | 10.53500 | 124.00363 | 3167 ft | 207 kts | 176° |
| 2026-05-06 13:25 | 10.52057 | 124.00408 | 3031 ft | 207 kts | 178° |
| 2026-05-06 13:25 | 10.50639 | 124.00315 | 2914 ft | 208 kts | 187° |
| 2026-05-06 13:25 | 10.49220 | 124.00072 | 2784 ft | 205 kts | 190° |
| 2026-05-06 13:25 | 10.47819 | 123.99757 | 2609 ft | 208 kts | 193° |
| 2026-05-06 13:26 | 10.46422 | 123.99425 | 2477 ft | 205 kts | 190° |
| 2026-05-06 13:26 | 10.45028 | 123.99169 | 2386 ft | 203 kts | 190° |
| 2026-05-06 13:26 | 10.43642 | 123.98949 | 2305 ft | 200 kts | 188° |
| 2026-05-06 13:26 | 10.42285 | 123.98773 | 2198 ft | 194 kts | 185° |
| 2026-05-06 13:27 | 10.40954 | 123.98655 | 2134 ft | 189 kts | 186° |
| 2026-05-06 13:27 | 10.39695 | 123.98404 | 2053 ft | 180 kts | 195° |
| 2026-05-06 13:27 | 10.38518 | 123.97997 | 1942 ft | 178 kts | 202° |
| 2026-05-06 13:27 | 10.37391 | 123.97516 | 1822 ft | 173 kts | 204° |
| 2026-05-06 13:28 | 10.36357 | 123.96929 | 1685 ft | 170 kts | 218° |
| 2026-05-06 13:28 | 10.35454 | 123.96170 | 1580 ft | 162 kts | 222° |
| 2026-05-06 13:28 | 10.34656 | 123.95497 | 1402 ft | 142 kts | 224° |
| 2026-05-06 13:28 | 10.33960 | 123.94853 | 1220 ft | 127 kts | 225° |
| 2026-05-06 13:29 | 10.33350 | 123.94233 | 1088 ft | 123 kts | 227° |
| 2026-05-06 13:29 | 10.32742 | 123.93635 | 928 ft | 120 kts | 220° |
| 2026-05-06 13:29 | 10.31984 | 123.93351 | 848 ft | 115 kts | 181° |
| 2026-05-06 13:29 | 10.31213 | 123.93500 | 830 ft | 115 kts | 154° |
| 2026-05-06 13:30 | 10.30523 | 123.93903 | 806 ft | 116 kts | 143° |
| 2026-05-06 13:30 | 10.29880 | 123.94387 | 761 ft | 114 kts | 136° |
| 2026-05-06 13:30 | 10.29428 | 123.95025 | 577 ft | 110 kts | 105° |
| 2026-05-06 13:30 | 10.29400 | 123.95750 | 381 ft | 100 kts | 75° |
| 2026-05-06 13:31 | 10.29603 | 123.96379 | 283 ft | 91 kts | 59° |
| 2026-05-06 13:31 | 10.29973 | 123.96879 | 151 ft | 86 kts | 44° |
| 2026-05-06 13:31 | 10.30377 | 123.97293 | 46 ft | 79 kts | 43° |
| 2026-05-06 13:31 | 10.30682 | 123.97604 | 33 ft | 47 kts | 44° |
| 2026-05-06 13:32 | 10.30811 | 123.97732 | 32 ft | 10 kts | 53° |
| 2026-05-06 13:32 | 10.30788 | 123.97804 | 32 ft | 15 kts | 136° |
| 2026-05-06 13:32 | 10.30696 | 123.97896 | 30 ft | 22 kts | 135° |
| 2026-05-06 13:32 | 10.30631 | 123.97963 | 31 ft | 13 kts | 134° |
| 2026-05-06 13:33 | 10.30556 | 123.98003 | 33 ft | 15 kts | 207° |
| 2026-05-06 13:33 | 10.30462 | 123.97915 | 33 ft | 22 kts | 224° |
| 2026-05-06 13:33 | 10.30345 | 123.97795 | 33 ft | 22 kts | 226° |
| 2026-05-06 13:33 | 10.30245 | 123.97694 | 33 ft | 20 kts | 224° |
| 2026-05-06 13:34 | 10.30158 | 123.97608 | 33 ft | 19 kts | 224° |
| 2026-05-06 13:34 | 10.30079 | 123.97529 | 33 ft | 15 kts | 225° |
| 2026-05-06 13:34 | 10.30025 | 123.97480 | 33 ft | 4 kts | 170° |
| 2026-05-06 13:34 | 10.29989 | 123.97502 | 33 ft | 9 kts | 211° |
| 2026-05-06 13:35 | 10.29947 | 123.97458 | 33 ft | 6 kts | 219° |
| 2026-05-06 13:35 | 10.29901 | 123.97415 | 33 ft | 11 kts | 226° |
| 2026-05-06 13:35 | 10.29842 | 123.97352 | 33 ft | 12 kts | 226° |
| 2026-05-06 13:35 | 10.29797 | 123.97329 | 33 ft | 7 kts | 82° |
| 2026-05-06 13:36 | 10.29800 | 123.97334 | 33 ft | 1 kts | 43° |
| 2026-05-06 13:36 | 10.29801 | 123.97335 | 33 ft | 0 kts | 41° |